Time;durP1;ratioP1;P1;durP2;ratioP2;P2;SDS_P1;SDS_P2;PMS_P1;PMS_P2;Temp;Humidity;BMP_temperature;BMP_pressure;BME280_temperature;BME280_humidity;BME280_pressure;Samples;Min_cycle;Max_cycle;Signal;HPM_P1;HPM_P2
2023/01/04 00:02:00;;;;;;;3.83;1.60;;;11.80;99.90;;;;;;5064553;28;20207;-31
2023/01/04 00:04:27;;;;;;;5.83;1.73;;;11.70;99.90;;;;;;5065814;28;20204;-32
2023/01/04 00:06:57;;;;;;;6.17;2.20;;;11.80;99.90;;;;;;5065193;28;20577;-32
2023/01/04 00:09:24;;;;;;;4.20;1.73;;;11.70;99.90;;;;;;5066131;28;20294;-32
2023/01/04 00:11:51;;;;;;;3.80;1.77;;;11.70;99.90;;;;;;5064324;28;20211;-32
2023/01/04 00:14:19;;;;;;;5.80;1.63;;;11.80;99.90;;;;;;5062184;28;20668;-32
2023/01/04 00:16:46;;;;;;;6.40;1.60;;;11.80;99.90;;;;;;5060560;28;20697;-32
2023/01/04 00:19:18;;;;;;;2.97;1.40;;;11.80;99.90;;;;;;5065780;28;20289;-32
2023/01/04 00:21:52;;;;;;;2.50;1.30;;;11.80;99.90;;;;;;5064126;28;20212;-32
2023/01/04 00:24:21;;;;;;;3.23;1.20;;;11.80;99.90;;;;;;5063988;28;20195;-32
2023/01/04 00:26:49;;;;;;;4.73;1.30;;;11.80;99.90;;;;;;5064161;28;20216;-32
2023/01/04 00:29:19;;;;;;;3.63;1.33;;;11.80;99.90;;;;;;5077733;28;20400;-32
2023/01/04 00:31:56;;;;;;;2.03;1.07;;;11.80;99.90;;;;;;5064324;28;20206;-32
2023/01/04 00:34:26;;;;;;;4.20;1.60;;;11.80;99.90;;;;;;5064270;28;20219;-32
2023/01/04 00:36:53;;;;;;;3.13;0.90;;;11.80;99.90;;;;;;5064673;28;20635;-31
2023/01/04 00:39:22;;;;;;;4.40;1.27;;;11.80;99.90;;;;;;5065742;28;20222;-32
2023/01/04 00:41:53;;;;;;;4.57;1.03;;;11.80;99.90;;;;;;5055599;28;20211;-32
2023/01/04 00:44:29;;;;;;;2.77;0.80;;;11.80;99.90;;;;;;5050643;28;20284;-32
2023/01/04 00:47:01;;;;;;;2.40;0.87;;;11.80;99.90;;;;;;5063398;28;20265;-31
2023/01/04 00:49:31;;;;;;;1.87;0.80;;;11.80;99.90;;;;;;5063369;28;20260;-32
2023/01/04 00:52:01;;;;;;;2.10;0.70;;;11.80;99.90;;;;;;5064253;28;20781;-32
2023/01/04 00:54:30;;;;;;;1.53;0.70;;;11.80;99.90;;;;;;5059505;28;20619;-32
2023/01/04 00:57:00;;;;;;;2.43;0.90;;;11.80;99.90;;;;;;5064155;28;20219;-32
2023/01/04 00:59:29;;;;;;;0.93;0.67;;;11.80;99.90;;;;;;5061878;28;20574;-32
2023/01/04 01:01:59;;;;;;;1.60;0.70;;;11.80;99.90;;;;;;5065712;28;20223;-32
2023/01/04 01:04:29;;;;;;;1.57;0.87;;;11.80;99.90;;;;;;5064219;28;20204;-32
2023/01/04 01:06:58;;;;;;;1.40;0.80;;;11.90;99.90;;;;;;5064019;28;20216;-32
2023/01/04 01:09:28;;;;;;;0.70;0.60;;;11.90;99.90;;;;;;5064364;28;20298;-32
2023/01/04 01:11:55;;;;;;;2.13;0.60;;;11.80;99.90;;;;;;5063034;28;20200;-32
2023/01/04 01:14:24;;;;;;;1.37;0.50;;;11.90;99.90;;;;;;5060403;28;20223;-32
2023/01/04 01:16:52;;;;;;;1.13;0.70;;;11.80;99.90;;;;;;5063584;28;20196;-32
2023/01/04 01:19:26;;;;;;;1.07;0.50;;;11.90;99.90;;;;;;5062369;28;20229;-32
2023/01/04 01:21:59;;;;;;;0.80;0.50;;;11.90;99.90;;;;;;5063508;28;20203;-32
2023/01/04 01:24:28;;;;;;;1.83;0.70;;;11.90;99.90;;;;;;5063923;28;20220;-33
2023/01/04 01:26:58;;;;;;;0.90;0.60;;;11.80;99.90;;;;;;5064881;28;20678;-32
2023/01/04 01:29:27;;;;;;;2.40;0.90;;;11.80;99.90;;;;;;5063834;28;20670;-32
2023/01/04 01:31:55;;;;;;;4.13;0.70;;;11.80;99.90;;;;;;5064873;28;20793;-32
2023/01/04 01:34:27;;;;;;;1.23;0.53;;;11.80;99.90;;;;;;5062861;28;20343;-31
2023/01/04 01:36:56;;;;;;;0.83;0.60;;;11.90;99.90;;;;;;5063080;28;20195;-32
2023/01/04 01:39:26;;;;;;;1.07;0.47;;;11.90;99.90;;;;;;5064976;28;20212;-31
2023/01/04 01:41:55;;;;;;;0.47;0.47;;;11.90;99.90;;;;;;5062874;28;20326;-32
2023/01/04 01:44:43;;;;;;;1.50;0.50;;;11.90;99.90;;;;;;5063608;28;20196;-32
2023/01/04 01:47:18;;;;;;;1.80;0.60;;;11.90;99.90;;;;;;5062512;28;20238;-32
2023/01/04 01:49:48;;;;;;;1.13;0.50;;;11.90;99.90;;;;;;5064509;28;20640;-31
2023/01/04 01:52:21;;;;;;;0.90;0.50;;;11.90;99.90;;;;;;5061652;28;20235;-32
2023/01/04 01:54:54;;;;;;;0.97;0.57;;;11.90;99.90;;;;;;5063277;28;20276;-32
2023/01/04 01:57:32;;;;;;;0.30;0.30;;;11.90;99.90;;;;;;5064220;28;20296;-32
2023/01/04 02:00:11;;;;;;;1.23;0.47;;;11.90;99.90;;;;;;5061881;28;20199;-31
2023/01/04 02:02:50;;;;;;;0.90;0.50;;;11.90;99.90;;;;;;5062360;28;20199;-32
2023/01/04 02:05:20;;;;;;;1.90;0.60;;;12.00;99.90;;;;;;5062453;28;20226;-31
2023/01/04 02:07:51;;;;;;;0.60;0.40;;;12.00;99.90;;;;;;5055090;28;20314;-31
2023/01/04 02:10:21;;;;;;;0.90;0.50;;;12.00;99.90;;;;;;5057514;28;20281;-31
2023/01/04 02:12:51;;;;;;;1.30;0.43;;;11.90;99.90;;;;;;5060503;28;20749;-31
2023/01/04 02:15:21;;;;;;;0.73;0.40;;;11.90;99.90;;;;;;5052629;28;20252;-31
2023/01/04 02:18:10;;;;;;;1.63;0.70;;;12.00;99.90;;;;;;5057173;28;20299;-31
2023/01/04 02:20:51;;;;;;;2.13;0.50;;;12.00;99.90;;;;;;5052294;28;20222;-32
2023/01/04 02:23:18;;;;;;;0.50;0.50;;;12.10;99.90;;;;;;5055836;28;20242;-30
2023/01/04 02:25:57;;;;;;;1.10;0.57;;;12.10;99.90;;;;;;5059658;28;20882;-31
2023/01/04 02:28:33;;;;;;;2.30;0.50;;;12.10;99.90;;;;;;5051996;28;20209;-31
2023/01/04 02:31:10;;;;;;;0.60;0.40;;;12.10;99.90;;;;;;5067869;28;20288;-32
2023/01/04 02:34:15;;;;;;;0.93;0.60;;;12.10;99.90;;;;;;5066768;28;20230;-31
2023/01/04 02:37:07;;;;;;;1.23;0.60;;;12.10;99.90;;;;;;5067068;28;20768;-31
2023/01/04 02:39:52;;;;;;;1.13;0.50;;;12.10;99.90;;;;;;5064984;28;20258;-31
2023/01/04 02:45:25;;;;;;;1.90;0.90;;;12.20;99.90;;;;;;5060571;28;20198;-32
2023/01/04 02:50:59;;;;;;;1.93;1.00;;;12.20;99.90;;;;;;5065073;28;20192;-32
2023/01/04 02:53:34;;;;;;;1.80;0.70;;;12.20;99.90;;;;;;5066598;28;20208;-32
2023/01/04 02:56:12;;;;;;;2.97;0.83;;;12.20;99.90;;;;;;5063585;28;20219;-31
2023/01/04 02:58:58;;;;;;;2.53;1.17;;;12.20;99.90;;;;;;5066640;28;20199;-32
2023/01/04 03:08:33;;;;;;;2.73;1.20;;;12.30;99.90;;;;;;5065723;28;20199;-31
2023/01/04 03:14:06;;;;;;;3.90;1.20;;;12.40;99.90;;;;;;5065407;28;20202;-31
2023/01/04 03:16:54;;;;;;;1.97;1.20;;;12.40;99.90;;;;;;5066363;28;20235;-32
2023/01/04 03:35:21;;;;;;;3.33;1.40;;;12.50;99.90;;;;;;5064165;28;20278;-31
2023/01/04 03:36:30;;;;;;;5.20;1.60;;;12.60;99.90;;;;;;5063951;28;20296;-32
2023/01/04 03:49:01;;;;;;;2.13;0.93;;;12.70;99.90;;;;;;5064908;28;20203;-32
2023/01/04 03:51:34;;;;;;;2.77;1.20;;;12.70;99.90;;;;;;5066721;28;20235;-31
2023/01/04 03:54:07;;;;;;;3.27;1.10;;;12.60;99.90;;;;;;5063281;28;20930;-31
2023/01/04 03:56:40;;;;;;;3.50;1.00;;;12.70;99.90;;;;;;5066427;28;20323;-31
2023/01/04 03:59:11;;;;;;;3.87;1.10;;;12.70;99.90;;;;;;5064458;28;20313;-32
2023/01/04 04:01:44;;;;;;;2.70;1.53;;;12.80;99.90;;;;;;5066959;28;20303;-32
2023/01/04 04:09:48;;;;;;;3.37;1.20;;;12.80;99.90;;;;;;5062259;28;20241;-31
2023/01/04 04:12:15;;;;;;;2.93;1.07;;;12.80;99.90;;;;;;5063519;28;20371;-31
2023/01/04 04:14:42;;;;;;;1.90;1.23;;;12.80;99.90;;;;;;5064514;28;20219;-32
2023/01/04 04:17:10;;;;;;;2.40;1.30;;;12.80;99.90;;;;;;5065500;28;20196;-32
2023/01/04 04:19:43;;;;;;;2.37;1.20;;;12.90;99.90;;;;;;5062890;28;20204;-32
2023/01/04 04:22:10;;;;;;;6.20;1.40;;;12.90;99.90;;;;;;5062175;28;20206;-31
2023/01/04 04:24:41;;;;;;;4.03;1.30;;;12.90;99.90;;;;;;5055246;28;20206;-32
2023/01/04 04:27:08;;;;;;;2.87;1.27;;;12.90;99.90;;;;;;5065494;28;20223;-31
2023/01/04 04:29:35;;;;;;;3.47;1.33;;;13.00;99.90;;;;;;5063182;28;20235;-32
2023/01/04 04:32:02;;;;;;;2.43;1.70;;;13.00;99.90;;;;;;5064173;28;20269;-32
2023/01/04 04:34:30;;;;;;;5.20;1.20;;;13.00;99.90;;;;;;5064056;28;20226;-32
2023/01/04 04:37:00;;;;;;;2.33;1.30;;;13.00;99.90;;;;;;5065427;28;20226;-31
2023/01/04 04:39:27;;;;;;;3.80;1.00;;;13.00;99.90;;;;;;5062998;28;20290;-31
2023/01/04 04:41:56;;;;;;;5.50;1.30;;;13.10;99.90;;;;;;5064429;28;20203;-31
2023/01/04 04:44:26;;;;;;;2.20;0.90;;;13.10;99.90;;;;;;5062970;28;20216;-32
2023/01/04 04:46:53;;;;;;;2.23;1.00;;;13.10;99.90;;;;;;5063772;28;20693;-31
2023/01/04 04:49:20;;;;;;;4.13;1.30;;;13.20;99.90;;;;;;5063787;28;20192;-31
2023/01/04 04:51:50;;;;;;;2.10;1.00;;;13.20;99.90;;;;;;5061689;28;20266;-31
2023/01/04 04:54:20;;;;;;;2.37;0.90;;;13.20;99.90;;;;;;5064402;28;20226;-30
2023/01/04 04:56:52;;;;;;;1.90;0.90;;;13.20;99.90;;;;;;5065740;28;20604;-32
2023/01/04 04:59:21;;;;;;;2.47;0.90;;;13.20;99.90;;;;;;5061347;28;20294;-31
2023/01/04 05:01:54;;;;;;;2.33;1.13;;;13.20;99.90;;;;;;5064440;28;20243;-32
2023/01/04 05:04:22;;;;;;;4.67;1.07;;;13.20;99.90;;;;;;5062184;28;20208;-32
2023/01/04 05:06:49;;;;;;;1.83;0.97;;;13.20;99.90;;;;;;5060951;28;20286;-31
2023/01/04 05:09:16;;;;;;;2.93;0.77;;;13.20;99.90;;;;;;5046035;28;20800;-32
2023/01/04 05:14:29;;;;;;;2.17;0.93;;;13.30;99.90;;;;;;5061819;28;20699;-31
2023/01/04 05:16:59;;;;;;;2.33;1.10;;;13.30;99.90;;;;;;5065296;28;20191;-31
2023/01/04 05:19:26;;;;;;;2.10;0.93;;;13.30;99.90;;;;;;5062057;28;20231;-32
2023/01/04 05:21:53;;;;;;;1.23;0.70;;;13.30;99.90;;;;;;5062116;28;20211;-31
2023/01/04 05:24:20;;;;;;;2.50;0.90;;;13.30;99.90;;;;;;5063993;28;20230;-31
2023/01/04 05:26:50;;;;;;;2.47;1.00;;;13.30;99.90;;;;;;5064408;28;20213;-31
2023/01/04 05:32:08;;;;;;;0.90;0.80;;;13.30;99.90;;;;;;5045008;28;20282;-32
2023/01/04 05:34:35;;;;;;;2.93;0.90;;;13.40;99.90;;;;;;5048804;28;20666;-32
2023/01/04 05:37:05;;;;;;;2.83;1.13;;;13.40;99.90;;;;;;5064674;28;20765;-31
2023/01/04 05:39:32;;;;;;;1.20;1.00;;;13.40;99.90;;;;;;5063028;28;21790;-32
2023/01/04 05:44:47;;;;;;;1.43;0.70;;;13.40;99.90;;;;;;5063286;28;20208;-32
2023/01/04 05:47:14;;;;;;;4.87;0.80;;;13.40;99.90;;;;;;5063094;28;20208;-32
2023/01/04 05:49:44;;;;;;;1.30;0.70;;;13.40;99.90;;;;;;5061059;28;20605;-31
2023/01/04 05:52:11;;;;;;;4.60;1.00;;;13.50;99.90;;;;;;5062900;28;20235;-32
2023/01/04 05:54:41;;;;;;;2.23;1.10;;;13.50;99.90;;;;;;5063957;28;20199;-31
2023/01/04 05:57:11;;;;;;;1.80;0.73;;;13.50;99.90;;;;;;5068882;28;20272;-32
2023/01/04 05:59:38;;;;;;;2.30;0.90;;;13.50;99.90;;;;;;5055206;28;20297;-32
2023/01/04 06:02:19;;;;;;;3.17;1.00;;;13.50;99.90;;;;;;5048351;28;20310;-31
2023/01/04 06:04:49;;;;;;;2.03;0.90;;;13.40;99.90;;;;;;5053339;28;20219;-31
2023/01/04 06:07:25;;;;;;;2.23;1.17;;;13.50;99.90;;;;;;5052817;28;20249;-31
2023/01/04 06:09:55;;;;;;;1.57;0.90;;;13.50;99.90;;;;;;5056261;28;20218;-32
2023/01/04 06:12:22;;;;;;;1.57;0.83;;;13.50;99.90;;;;;;5048245;28;20247;-32
2023/01/04 06:14:52;;;;;;;5.33;0.90;;;13.50;99.90;;;;;;5049355;28;20204;-30
2023/01/04 06:17:21;;;;;;;1.77;1.00;;;13.50;99.90;;;;;;5060844;28;20234;-29
2023/01/04 06:19:51;;;;;;;3.90;1.17;;;13.50;99.90;;;;;;5058464;28;20815;-29
2023/01/04 06:22:21;;;;;;;3.13;0.90;;;13.50;99.90;;;;;;5050026;28;20247;-29
2023/01/04 06:24:50;;;;;;;2.20;1.00;;;13.60;99.90;;;;;;5055659;28;20224;-29
2023/01/04 06:27:20;;;;;;;2.47;1.27;;;13.60;99.90;;;;;;5077545;28;20696;-29
2023/01/04 06:29:47;;;;;;;2.00;0.90;;;13.60;99.90;;;;;;5049201;28;20223;-29
2023/01/04 06:32:17;;;;;;;2.17;1.10;;;13.60;99.90;;;;;;5060935;28;20518;-30
2023/01/04 06:34:48;;;;;;;2.63;0.80;;;13.60;99.90;;;;;;5051156;28;20249;-30
2023/01/04 06:37:20;;;;;;;1.60;0.97;;;13.60;99.90;;;;;;5048156;28;20303;-30
2023/01/04 06:39:47;;;;;;;2.03;0.90;;;13.70;99.90;;;;;;5053123;28;20650;-29
2023/01/04 06:45:02;;;;;;;5.97;1.40;;;13.70;99.90;;;;;;5065745;28;20208;-29
2023/01/04 06:47:31;;;;;;;1.93;0.80;;;13.70;99.90;;;;;;5063770;28;20306;-30
2023/01/04 06:50:03;;;;;;;1.33;0.90;;;13.60;99.90;;;;;;5065465;28;20265;-29
2023/01/04 06:52:33;;;;;;;0.97;0.80;;;13.70;99.90;;;;;;5058681;28;20235;-30
2023/01/04 06:55:00;;;;;;;1.27;0.70;;;13.60;99.90;;;;;;5059675;28;20322;-29
2023/01/04 06:57:32;;;;;;;2.33;0.77;;;13.60;99.90;;;;;;5065298;28;20288;-29
2023/01/04 07:00:03;;;;;;;1.87;0.80;;;13.60;99.90;;;;;;5065397;28;20203;-30
2023/01/04 07:02:35;;;;;;;1.90;0.60;;;13.60;99.90;;;;;;5064254;28;20264;-29
2023/01/04 07:05:05;;;;;;;2.10;0.90;;;13.60;99.90;;;;;;5065139;28;20277;-29
2023/01/04 07:07:33;;;;;;;2.60;1.10;;;13.70;99.90;;;;;;5065475;28;20199;-31
2023/01/04 07:10:00;;;;;;;1.23;0.60;;;13.70;99.90;;;;;;5066257;28;20314;-32
2023/01/04 07:12:38;;;;;;;3.93;0.90;;;13.70;99.90;;;;;;5067730;28;20199;-31
2023/01/04 07:15:06;;;;;;;1.33;0.70;;;13.70;99.90;;;;;;5066113;28;20243;-32
2023/01/04 07:17:55;;;;;;;4.10;0.90;;;13.60;99.90;;;;;;5050893;28;20206;-32
2023/01/04 07:20:22;;;;;;;2.67;0.70;;;13.60;99.90;;;;;;5062110;28;20290;-32
2023/01/04 07:22:52;;;;;;;2.60;0.90;;;13.70;99.90;;;;;;5064224;28;20215;-33
2023/01/04 07:25:19;;;;;;;2.50;0.90;;;13.70;99.90;;;;;;5062779;28;20235;-32
2023/01/04 07:27:51;;;;;;;3.20;0.90;;;13.70;99.90;;;;;;5077543;28;20199;-31
2023/01/04 07:30:20;;;;;;;1.37;0.70;;;13.70;99.90;;;;;;5064546;28;20200;-32
2023/01/04 07:32:54;;;;;;;1.00;0.70;;;13.80;99.90;;;;;;5064458;28;20294;-31
2023/01/04 07:35:22;;;;;;;2.03;1.10;;;13.80;99.90;;;;;;5045358;28;20213;-31
2023/01/04 07:37:53;;;;;;;1.20;0.60;;;13.80;99.90;;;;;;5058609;28;20225;-31
2023/01/04 07:40:26;;;;;;;4.07;0.70;;;13.80;99.90;;;;;;5063515;28;20697;-31
2023/01/04 07:42:57;;;;;;;3.07;0.80;;;13.70;99.90;;;;;;5066291;28;20214;-31
2023/01/04 07:45:29;;;;;;;3.03;0.80;;;13.80;99.90;;;;;;5064369;28;20207;-32
2023/01/04 07:47:56;;;;;;;5.00;0.70;;;13.80;99.90;;;;;;5063702;28;20388;-31
2023/01/04 07:50:27;;;;;;;1.37;0.60;;;13.80;99.90;;;;;;5063832;28;20227;-31
2023/01/04 07:52:54;;;;;;;2.27;0.80;;;13.80;99.90;;;;;;5066136;28;20239;-31
2023/01/04 07:55:24;;;;;;;2.00;0.80;;;13.80;99.90;;;;;;5063490;28;20200;-31
2023/01/04 07:57:53;;;;;;;4.60;0.90;;;13.90;99.90;;;;;;5063243;28;20310;-32
2023/01/04 08:00:20;;;;;;;2.67;0.90;;;13.90;99.90;;;;;;5063045;28;20210;-32
2023/01/04 08:02:48;;;;;;;4.83;0.80;;;13.90;99.90;;;;;;5065880;28;20659;-32
2023/01/04 08:05:21;;;;;;;2.33;0.70;;;13.90;99.90;;;;;;5061115;28;20303;-33
2023/01/04 08:07:48;;;;;;;3.20;0.70;;;14.00;99.90;;;;;;5063166;28;20286;-32
2023/01/04 08:10:16;;;;;;;3.50;0.80;;;14.00;99.90;;;;;;5065628;28;20253;-32
2023/01/04 08:12:48;;;;;;;1.23;0.50;;;14.00;99.90;;;;;;5067864;28;20670;-32
2023/01/04 08:15:15;;;;;;;3.27;0.67;;;14.00;99.90;;;;;;5064562;28;20294;-31
2023/01/04 08:17:44;;;;;;;2.57;0.63;;;13.90;99.90;;;;;;5064269;28;20424;-32
2023/01/04 08:20:16;;;;;;;3.67;0.87;;;13.90;99.90;;;;;;5062221;28;20231;-32
2023/01/04 08:22:43;;;;;;;0.70;0.50;;;13.90;99.90;;;;;;5063370;28;20239;-32
2023/01/04 08:25:13;;;;;;;2.10;0.70;;;13.90;99.90;;;;;;5065407;28;20598;-32
2023/01/04 08:27:40;;;;;;;1.17;0.57;;;14.00;99.90;;;;;;5061914;28;20720;-32
2023/01/04 08:30:11;;;;;;;2.07;0.60;;;14.00;99.90;;;;;;5059652;28;20661;-32
2023/01/04 08:32:39;;;;;;;3.00;0.73;;;14.10;99.90;;;;;;5063650;28;20238;-32
2023/01/04 08:35:07;;;;;;;1.23;0.70;;;14.10;99.90;;;;;;5063835;28;20257;-32
2023/01/04 08:37:34;;;;;;;1.50;0.70;;;14.10;99.90;;;;;;5064891;28;20465;-31
2023/01/04 08:40:04;;;;;;;1.63;0.67;;;14.10;99.90;;;;;;5064501;28;20199;-33
2023/01/04 08:42:31;;;;;;;2.73;0.60;;;14.00;99.90;;;;;;5062634;28;20294;-32
2023/01/04 08:45:01;;;;;;;2.43;0.70;;;14.00;99.90;;;;;;5055226;28;20253;-32
2023/01/04 08:47:31;;;;;;;1.27;0.60;;;14.00;99.90;;;;;;5059704;28;20693;-32
2023/01/04 08:49:59;;;;;;;2.23;0.80;;;14.10;99.90;;;;;;5062868;28;20199;-32
2023/01/04 08:52:36;;;;;;;1.40;0.70;;;14.10;99.90;;;;;;5059157;28;20235;-32
2023/01/04 08:55:05;;;;;;;3.67;0.97;;;14.10;99.90;;;;;;5062560;28;20646;-32
2023/01/04 08:57:38;;;;;;;3.00;0.83;;;14.10;99.90;;;;;;5064015;28;20265;-32
2023/01/04 09:00:09;;;;;;;2.83;0.90;;;14.10;99.90;;;;;;5063808;28;20208;-32
2023/01/04 09:02:38;;;;;;;3.97;1.33;;;14.20;99.90;;;;;;5063022;28;20760;-32
2023/01/04 09:05:09;;;;;;;1.30;0.80;;;14.10;99.90;;;;;;5062940;28;20741;-32
2023/01/04 09:07:48;;;;;;;6.10;1.20;;;14.20;99.90;;;;;;5059815;28;20233;-32
2023/01/04 09:10:18;;;;;;;3.40;0.90;;;14.20;99.90;;;;;;5064405;28;20212;-31
2023/01/04 09:12:46;;;;;;;3.87;1.00;;;14.20;99.90;;;;;;5065660;28;20210;-31
2023/01/04 09:15:17;;;;;;;2.53;0.90;;;14.20;99.90;;;;;;5062933;28;20215;-32
2023/01/04 09:17:47;;;;;;;3.27;0.77;;;14.20;99.90;;;;;;5058813;28;20337;-32
2023/01/04 09:20:38;;;;;;;2.50;0.77;;;14.30;99.90;;;;;;5045792;28;20204;-32
2023/01/04 09:23:05;;;;;;;1.20;0.80;;;14.30;99.90;;;;;;5058377;28;20664;-32
2023/01/04 09:25:40;;;;;;;2.23;0.90;;;14.30;99.90;;;;;;5064513;28;20202;-34
2023/01/04 09:28:07;;;;;;;5.30;1.00;;;14.30;99.90;;;;;;5060702;28;20653;-32
2023/01/04 09:30:39;;;;;;;3.77;1.10;;;14.30;99.90;;;;;;5061654;28;20195;-32
2023/01/04 09:33:07;;;;;;;7.10;1.20;;;14.40;99.90;;;;;;5061747;28;20208;-32
2023/01/04 09:35:34;;;;;;;3.83;0.80;;;14.40;99.90;;;;;;5063356;28;20216;-32
2023/01/04 09:38:01;;;;;;;2.73;0.70;;;14.40;99.90;;;;;;5044217;28;20195;-31
2023/01/04 09:40:50;;;;;;;1.63;0.50;;;14.40;99.90;;;;;;5062172;28;20213;-32
2023/01/04 09:43:25;;;;;;;3.80;0.97;;;14.50;99.90;;;;;;5062908;28;20241;-32
2023/01/04 09:45:56;;;;;;;4.97;0.80;;;14.50;99.90;;;;;;5062008;28;20242;-32
2023/01/04 09:48:29;;;;;;;2.87;0.67;;;14.50;99.90;;;;;;5062438;28;20215;-32
2023/01/04 09:51:11;;;;;;;3.93;0.80;;;14.50;99.90;;;;;;5064177;28;20659;-31
2023/01/04 09:53:45;;;;;;;3.07;0.80;;;14.50;99.90;;;;;;5063178;28;20274;-32
2023/01/04 09:56:35;;;;;;;2.53;0.67;;;14.60;99.90;;;;;;5063723;28;20306;-32
2023/01/04 09:59:13;;;;;;;2.13;0.60;;;14.60;99.90;;;;;;5059133;28;20219;-32
2023/01/04 10:01:45;;;;;;;1.40;0.60;;;14.60;99.90;;;;;;5063547;28;20199;-31
2023/01/04 10:04:37;;;;;;;2.63;0.70;;;14.60;99.90;;;;;;5063199;28;20208;-31
2023/01/04 10:07:08;;;;;;;3.13;0.80;;;14.60;99.90;;;;;;5063976;28;20527;-32
2023/01/04 10:09:37;;;;;;;5.20;0.90;;;14.60;99.90;;;;;;5058333;28;20207;-32
2023/01/04 10:12:52;;;;;;;0.67;0.50;;;14.70;99.90;;;;;;5054634;28;20765;-32
2023/01/04 10:15:43;;;;;;;2.17;0.60;;;14.70;99.90;;;;;;5061397;28;20593;-32
2023/01/04 10:18:25;;;;;;;2.53;0.70;;;14.60;99.90;;;;;;5060117;28;20200;-31
2023/01/04 10:21:28;;;;;;;3.00;0.60;;;14.60;99.90;;;;;;5061241;28;20696;-32
2023/01/04 10:24:24;;;;;;;2.73;0.70;;;14.60;99.90;;;;;;5063050;28;20207;-32
2023/01/04 10:26:58;;;;;;;1.47;0.60;;;14.70;99.90;;;;;;5058281;28;20223;-32
2023/01/04 10:29:43;;;;;;;3.87;0.63;;;14.60;99.90;;;;;;5054895;28;20697;-32
2023/01/04 10:32:11;;;;;;;3.57;0.80;;;14.60;99.90;;;;;;5055864;28;20270;-32
2023/01/04 10:34:42;;;;;;;2.17;0.60;;;14.70;99.90;;;;;;5063486;28;20366;-32
2023/01/04 10:37:32;;;;;;;3.10;0.60;;;14.70;99.90;;;;;;5064039;28;20224;-32
2023/01/04 10:40:04;;;;;;;2.43;0.80;;;14.70;99.90;;;;;;5060779;28;20200;-32
2023/01/04 10:42:45;;;;;;;2.57;0.90;;;14.70;99.90;;;;;;5065456;28;20298;-32
2023/01/04 10:45:18;;;;;;;1.10;0.70;;;14.60;99.90;;;;;;5065266;28;20199;-31
2023/01/04 10:47:56;;;;;;;2.47;0.70;;;14.60;99.90;;;;;;5066765;28;20227;-32
2023/01/04 10:50:40;;;;;;;2.47;0.50;;;14.70;99.90;;;;;;5062614;28;20223;-32
2023/01/04 10:53:23;;;;;;;3.17;0.70;;;14.70;99.90;;;;;;5064776;28;20207;-32
2023/01/04 10:56:02;;;;;;;1.57;0.60;;;14.70;99.90;;;;;;5062004;28;20268;-32
2023/01/04 10:59:12;;;;;;;1.97;0.67;;;14.70;99.90;;;;;;5057567;28;20281;-32
2023/01/04 11:01:42;;;;;;;1.80;0.50;;;14.70;99.90;;;;;;5064793;28;20310;-31
2023/01/04 11:04:18;;;;;;;1.83;0.60;;;14.70;99.90;;;;;;5063556;28;20305;-32
2023/01/04 11:06:58;;;;;;;3.13;1.10;;;14.70;99.90;;;;;;5066472;28;20253;-32
2023/01/04 11:09:34;;;;;;;2.07;0.70;;;14.70;99.90;;;;;;5066511;28;20261;-32
2023/01/04 11:12:05;;;;;;;1.97;0.50;;;14.70;99.90;;;;;;5065569;28;20201;-32
2023/01/04 11:14:35;;;;;;;1.33;0.73;;;14.80;99.90;;;;;;5066202;28;20206;-32
2023/01/04 11:17:08;;;;;;;4.30;0.60;;;14.80;99.90;;;;;;5065503;28;20227;-32
2023/01/04 11:19:36;;;;;;;2.90;0.73;;;14.70;99.90;;;;;;5064342;28;20219;-32
2023/01/04 11:22:24;;;;;;;3.10;0.70;;;14.80;99.90;;;;;;5060009;28;20265;-31
2023/01/04 11:25:00;;;;;;;3.03;0.60;;;14.80;99.90;;;;;;5065196;28;20203;-32
2023/01/04 11:27:55;;;;;;;2.80;0.70;;;14.70;99.90;;;;;;5064586;28;20567;-32
2023/01/04 11:30:31;;;;;;;2.10;0.90;;;14.70;99.90;;;;;;5061672;28;20203;-32
2023/01/04 11:33:14;;;;;;;1.37;0.57;;;14.80;99.90;;;;;;5065544;28;20231;-32
2023/01/04 11:35:49;;;;;;;1.50;0.50;;;14.80;99.90;;;;;;5054348;28;20821;-32
2023/01/04 11:38:26;;;;;;;1.50;0.60;;;14.80;99.90;;;;;;5065991;28;20223;-32
2023/01/04 11:40:56;;;;;;;2.57;0.70;;;14.80;99.90;;;;;;5063462;28;20203;-31
2023/01/04 11:43:26;;;;;;;3.47;0.60;;;14.90;99.90;;;;;;5050753;28;20241;-31
2023/01/04 11:46:00;;;;;;;1.23;0.40;;;14.90;99.90;;;;;;5056542;28;20211;-32
2023/01/04 11:48:49;;;;;;;1.77;0.50;;;14.90;99.90;;;;;;5064830;28;20596;-32
2023/01/04 11:51:35;;;;;;;0.53;0.50;;;14.90;99.90;;;;;;5063703;28;20725;-36
2023/01/04 11:54:14;;;;;;;3.17;0.40;;;14.90;99.90;;;;;;5063899;28;21763;-32
2023/01/04 11:57:01;;;;;;;1.70;0.50;;;14.90;99.90;;;;;;5060250;28;20233;-32
2023/01/04 11:59:37;;;;;;;1.23;0.50;;;14.90;99.90;;;;;;5061138;28;20199;-31
2023/01/04 12:02:25;;;;;;;1.90;0.53;;;14.90;99.90;;;;;;5063777;28;20207;-32
2023/01/04 12:05:21;;;;;;;1.37;0.40;;;14.90;99.90;;;;;;5064167;28;20207;-31
2023/01/04 12:07:58;;;;;;;1.83;0.70;;;14.90;99.90;;;;;;5062562;28;20292;-31
2023/01/04 12:10:26;;;;;;;1.53;0.70;;;14.90;99.90;;;;;;5059990;28;20199;-31
2023/01/04 12:13:02;;;;;;;1.13;0.73;;;14.90;99.90;;;;;;5064493;28;20699;-31
2023/01/04 12:15:54;;;;;;;1.10;0.47;;;14.90;99.90;;;;;;5064809;28;20207;-32
2023/01/04 12:18:50;;;;;;;1.10;0.53;;;14.90;99.90;;;;;;5062051;28;20803;-32
2023/01/04 12:21:27;;;;;;;2.20;0.60;;;14.90;99.90;;;;;;5060352;28;20247;-32
2023/01/04 12:23:55;;;;;;;0.63;0.40;;;14.90;99.90;;;;;;5056957;28;20195;-32
2023/01/04 12:26:25;;;;;;;1.60;0.93;;;14.90;99.90;;;;;;5064763;28;20253;-31
2023/01/04 12:29:23;;;;;;;0.47;0.30;;;15.00;99.90;;;;;;5060273;28;20212;-32
2023/01/04 12:32:16;;;;;;;1.57;0.47;;;15.00;99.90;;;;;;5062390;28;20212;-31
2023/01/04 12:34:45;;;;;;;1.80;0.50;;;15.00;99.90;;;;;;5063465;28;20328;-30
2023/01/04 12:37:48;;;;;;;1.20;0.33;;;15.00;99.90;;;;;;5066092;28;20222;-31
2023/01/04 12:40:43;;;;;;;0.50;0.40;;;15.00;99.90;;;;;;5057140;28;20219;-31
2023/01/04 12:43:17;;;;;;;2.00;0.57;;;15.00;99.90;;;;;;5059216;28;20726;-32
2023/01/04 12:49:02;;;;;;;0.50;0.27;;;15.00;99.90;;;;;;5061809;28;20245;-31
2023/01/04 12:51:28;;;;;;;0.40;0.30;;;15.00;99.90;;;;;;5064166;28;20641;-32
2023/01/04 12:54:20;;;;;;;2.40;0.60;;;15.00;99.90;;;;;;5056861;28;20714;-32
2023/01/04 12:57:21;;;;;;;0.53;0.40;;;15.10;99.90;;;;;;5056623;28;20713;-33
2023/01/04 13:00:00;;;;;;;0.70;0.40;;;15.10;99.90;;;;;;5051320;28;20244;-32
2023/01/04 13:02:27;;;;;;;2.40;0.90;;;15.10;99.90;;;;;;5046239;28;20280;-31
2023/01/04 13:05:01;;;;;;;1.17;0.57;;;15.10;99.90;;;;;;5062569;28;20218;-32
2023/01/04 13:07:57;;;;;;;0.93;0.60;;;15.10;99.90;;;;;;5063765;28;20245;-32
2023/01/04 13:10:34;;;;;;;1.80;0.57;;;15.10;99.90;;;;;;5063884;28;20276;-31
2023/01/04 13:13:23;;;;;;;1.87;0.30;;;15.10;99.90;;;;;;5051435;28;20239;-31
2023/01/04 13:16:00;;;;;;;1.07;0.30;;;15.10;99.90;;;;;;5064341;28;20266;-32
2023/01/04 13:18:40;;;;;;;1.03;0.40;;;15.00;99.90;;;;;;5063942;28;20284;-31
2023/01/04 13:21:22;;;;;;;0.43;0.40;;;15.10;99.90;;;;;;5062975;28;20203;-31
2023/01/04 13:23:56;;;;;;;0.30;0.30;;;15.10;99.90;;;;;;5063239;28;20636;-35
2023/01/04 13:26:47;;;;;;;0.97;0.30;;;15.10;99.90;;;;;;5064495;28;20207;-31
2023/01/04 13:29:23;;;;;;;0.70;0.30;;;15.20;99.90;;;;;;5062207;28;20766;-31
2023/01/04 13:32:02;;;;;;;0.53;0.30;;;15.20;99.90;;;;;;5064111;28;20352;-31
2023/01/04 13:34:33;;;;;;;0.40;0.30;;;15.20;99.90;;;;;;5062311;28;20210;-31
2023/01/04 13:37:03;;;;;;;1.00;0.50;;;15.20;99.90;;;;;;5062447;28;20481;-32
2023/01/04 13:39:32;;;;;;;0.73;0.30;;;15.20;99.90;;;;;;5057979;28;20219;-32
2023/01/04 13:42:01;;;;;;;0.60;0.30;;;15.20;99.90;;;;;;5062534;28;20203;-32
2023/01/04 13:44:52;;;;;;;1.03;0.40;;;15.20;99.90;;;;;;5062994;28;20200;-31
2023/01/04 13:47:43;;;;;;;1.07;0.60;;;15.30;99.90;;;;;;5057855;28;20282;-32
2023/01/04 13:50:57;;;;;;;1.60;0.53;;;15.30;99.90;;;;;;5061430;28;20651;-32
2023/01/04 13:53:30;;;;;;;1.63;0.60;;;15.30;99.90;;;;;;5049999;28;20212;-33
2023/01/04 13:56:04;;;;;;;1.20;0.80;;;15.30;99.90;;;;;;5058532;28;21213;-32
2023/01/04 13:58:34;;;;;;;1.30;0.40;;;15.30;99.90;;;;;;5046711;28;20310;-32
2023/01/04 14:01:13;;;;;;;2.03;0.60;;;15.30;99.90;;;;;;5077402;28;20202;-32
2023/01/04 14:03:53;;;;;;;1.03;0.60;;;15.30;99.90;;;;;;5062909;28;20203;-32
2023/01/04 14:06:32;;;;;;;4.03;0.70;;;15.30;99.90;;;;;;5047721;28;20211;-32
2023/01/04 14:09:12;;;;;;;4.10;0.90;;;15.40;99.90;;;;;;5061176;28;20990;-31
2023/01/04 14:11:57;;;;;;;2.63;0.77;;;15.40;99.90;;;;;;5061115;28;20211;-31
2023/01/04 14:14:49;;;;;;;2.30;0.50;;;15.40;99.90;;;;;;5062091;28;20229;-32
2023/01/04 14:17:32;;;;;;;0.77;0.43;;;15.40;99.90;;;;;;5066388;28;20582;-32
2023/01/04 14:20:04;;;;;;;0.40;0.30;;;15.40;99.90;;;;;;5062219;28;20218;-32
2023/01/04 14:22:31;;;;;;;1.83;0.43;;;15.30;99.90;;;;;;5064576;28;20302;-31
2023/01/04 14:25:20;;;;;;;1.33;0.40;;;15.30;99.90;;;;;;5067591;28;20709;-32